sensor_id;sensor_type;location;lat;lon;timestamp;pressure;altitude;pressure_sealevel;temperature;humidity
48892;BME280;50130;52.150;5.236;2023-03-07T00:00:29;99592.0;;;6.31;100.0
48892;BME280;50130;52.150;5.236;2023-03-07T00:02:05;99601.0;;;6.35;100.0
48892;BME280;50130;52.150;5.236;2023-03-07T00:03:41;99600.0;;;6.5;100.0
48892;BME280;50130;52.150;5.236;2023-03-07T00:06:54;99605.0;;;6.34;100.0
48892;BME280;50130;52.150;5.236;2023-03-07T00:08:31;99596.0;;;6.5;100.0
48892;BME280;50130;52.150;5.236;2023-03-07T00:10:09;99601.0;;;6.42;100.0
48892;BME280;50130;52.150;5.236;2023-03-07T00:13:21;99599.0;;;6.44;100.0
48892;BME280;50130;52.150;5.236;2023-03-07T00:14:57;99606.0;;;6.31;100.0
48892;BME280;50130;52.150;5.236;2023-03-07T00:16:34;99601.0;;;6.47;100.0
48892;BME280;50130;52.150;5.236;2023-03-07T00:18:09;99605.0;;;6.37;100.0
48892;BME280;50130;52.150;5.236;2023-03-07T00:21:22;99601.0;;;6.4;100.0
48892;BME280;50130;52.150;5.236;2023-03-07T00:22:58;99599.0;;;6.31;100.0
48892;BME280;50130;52.150;5.236;2023-03-07T00:24:34;99593.0;;;6.23;100.0
48892;BME280;50130;52.150;5.236;2023-03-07T00:27:49;99592.0;;;6.28;100.0
48892;BME280;50130;52.150;5.236;2023-03-07T00:29:26;99594.0;;;6.32;100.0
48892;BME280;50130;52.150;5.236;2023-03-07T00:31:04;99590.0;;;6.33;100.0
48892;BME280;50130;52.150;5.236;2023-03-07T00:34:17;99589.0;;;6.34;99.78
48892;BME280;50130;52.150;5.236;2023-03-07T00:35:54;99593.0;;;6.24;100.0
48892;BME280;50130;52.150;5.236;2023-03-07T00:37:31;99588.0;;;6.31;99.91
48892;BME280;50130;52.150;5.236;2023-03-07T00:39:07;99587.0;;;6.11;100.0
48892;BME280;50130;52.150;5.236;2023-03-07T00:42:20;99588.0;;;6.15;100.0
48892;BME280;50130;52.150;5.236;2023-03-07T00:43:56;99587.0;;;6.2;100.0
48892;BME280;50130;52.150;5.236;2023-03-07T00:45:32;99585.0;;;6.16;100.0
48892;BME280;50130;52.150;5.236;2023-03-07T00:48:45;99583.0;;;6.13;100.0
48892;BME280;50130;52.150;5.236;2023-03-07T00:51:59;99580.0;;;6.25;99.96
48892;BME280;50130;52.150;5.236;2023-03-07T00:55:12;99599.0;;;6.31;99.73
48892;BME280;50130;52.150;5.236;2023-03-07T00:56:48;99603.0;;;6.13;100.0
48892;BME280;50130;52.150;5.236;2023-03-07T00:58:24;99599.0;;;6.03;98.68
48892;BME280;50130;52.150;5.236;2023-03-07T01:00:02;99594.0;;;6.05;99.11
48892;BME280;50130;52.150;5.236;2023-03-07T01:03:16;99599.0;;;6.12;98.38
48892;BME280;50130;52.150;5.236;2023-03-07T01:04:53;99597.0;;;6.09;98.53
48892;BME280;50130;52.150;5.236;2023-03-07T01:06:30;99596.0;;;6.17;98.41
48892;BME280;50130;52.150;5.236;2023-03-07T01:09:44;99594.0;;;6.35;97.78
48892;BME280;50130;52.150;5.236;2023-03-07T01:11:20;99597.0;;;6.27;97.96
48892;BME280;50130;52.150;5.236;2023-03-07T01:12:56;99594.0;;;6.2;98.28
48892;BME280;50130;52.150;5.236;2023-03-07T01:14:33;99595.0;;;6.12;98.7
48892;BME280;50130;52.150;5.236;2023-03-07T01:17:49;99594.0;;;6.24;98.31
48892;BME280;50130;52.150;5.236;2023-03-07T01:19:25;99585.0;;;6.14;98.53
48892;BME280;50130;52.150;5.236;2023-03-07T01:21:01;99586.0;;;6.07;97.49
48892;BME280;50130;52.150;5.236;2023-03-07T01:24:21;99580.0;;;5.9;97.89
48892;BME280;50130;52.150;5.236;2023-03-07T01:25:57;99577.0;;;6.05;97.44
48892;BME280;50130;52.150;5.236;2023-03-07T01:27:34;99576.0;;;6.09;97.63
48892;BME280;50130;52.150;5.236;2023-03-07T01:30:55;99570.0;;;6.07;97.82
48892;BME280;50130;52.150;5.236;2023-03-07T01:32:32;99572.0;;;5.93;98.43
48892;BME280;50130;52.150;5.236;2023-03-07T01:34:08;99569.0;;;5.93;98.15
48892;BME280;50130;52.150;5.236;2023-03-07T01:35:44;99574.0;;;5.9;98.15
48892;BME280;50130;52.150;5.236;2023-03-07T01:38:58;99572.0;;;5.98;97.99
48892;BME280;50130;52.150;5.236;2023-03-07T01:40:37;99569.0;;;6.01;97.96
48892;BME280;50130;52.150;5.236;2023-03-07T01:42:13;99567.0;;;5.96;97.86
48892;BME280;50130;52.150;5.236;2023-03-07T01:43:49;99568.0;;;6.03;97.64
48892;BME280;50130;52.150;5.236;2023-03-07T01:48:18;99565.0;;;5.87;98.12
48892;BME280;50130;52.150;5.236;2023-03-07T01:51:35;99557.0;;;5.99;97.79
48892;BME280;50130;52.150;5.236;2023-03-07T01:53:13;99557.0;;;5.82;98.57
48892;BME280;50130;52.150;5.236;2023-03-07T01:54:51;99555.0;;;5.82;98.73
48892;BME280;50130;52.150;5.236;2023-03-07T01:56:30;99555.0;;;5.84;98.75
48892;BME280;50130;52.150;5.236;2023-03-07T01:59:49;99547.0;;;5.8;99.14
48892;BME280;50130;52.150;5.236;2023-03-07T02:01:27;99552.0;;;5.92;98.37
48892;BME280;50130;52.150;5.236;2023-03-07T02:03:07;99551.0;;;5.77;98.84
48892;BME280;50130;52.150;5.236;2023-03-07T02:04:50;99555.0;;;5.72;99.53
48892;BME280;50130;52.150;5.236;2023-03-07T02:08:11;99550.0;;;5.68;99.37
48892;BME280;50130;52.150;5.236;2023-03-07T02:09:49;99548.0;;;5.7;99.49
48892;BME280;50130;52.150;5.236;2023-03-07T02:11:27;99549.0;;;5.8;98.66
48892;BME280;50130;52.150;5.236;2023-03-07T02:14:41;99548.0;;;5.7;99.26
48892;BME280;50130;52.150;5.236;2023-03-07T02:16:20;99546.0;;;5.72;98.95
48892;BME280;50130;52.150;5.236;2023-03-07T02:17:57;99539.0;;;5.59;99.51
48892;BME280;50130;52.150;5.236;2023-03-07T02:19:43;99534.0;;;5.57;99.8
48892;BME280;50130;52.150;5.236;2023-03-07T02:23:20;99530.0;;;5.55;100.0
48892;BME280;50130;52.150;5.236;2023-03-07T02:25:02;99526.0;;;5.62;99.9
48892;BME280;50130;52.150;5.236;2023-03-07T02:26:43;99531.0;;;5.65;99.6
48892;BME280;50130;52.150;5.236;2023-03-07T02:28:20;99524.0;;;5.67;99.57
48892;BME280;50130;52.150;5.236;2023-03-07T02:29:56;99518.0;;;5.71;99.36
48892;BME280;50130;52.150;5.236;2023-03-07T02:33:08;99517.0;;;5.8;99.06
48892;BME280;50130;52.150;5.236;2023-03-07T02:34:44;99520.0;;;5.74;99.23
48892;BME280;50130;52.150;5.236;2023-03-07T02:36:22;99519.0;;;5.74;99.08
48892;BME280;50130;52.150;5.236;2023-03-07T02:39:41;99519.0;;;5.63;98.98
48892;BME280;50130;52.150;5.236;2023-03-07T02:41:23;99515.0;;;5.69;99.32
48892;BME280;50130;52.150;5.236;2023-03-07T02:43:02;99516.0;;;5.64;99.76
48892;BME280;50130;52.150;5.236;2023-03-07T02:44:39;99515.0;;;5.7;99.43
48892;BME280;50130;52.150;5.236;2023-03-07T02:47:51;99515.0;;;5.57;99.82
48892;BME280;50130;52.150;5.236;2023-03-07T02:49:28;99514.0;;;5.55;100.0
48892;BME280;50130;52.150;5.236;2023-03-07T02:51:04;99515.0;;;5.61;100.0
48892;BME280;50130;52.150;5.236;2023-03-07T02:54:18;99514.0;;;5.66;100.0
48892;BME280;50130;52.150;5.236;2023-03-07T02:55:54;99513.0;;;5.69;99.84
48892;BME280;50130;52.150;5.236;2023-03-07T02:57:30;99510.0;;;5.74;99.77
48892;BME280;50130;52.150;5.236;2023-03-07T03:00:43;99513.0;;;5.68;99.8
48892;BME280;50130;52.150;5.236;2023-03-07T03:02:19;99513.0;;;5.64;100.0
48892;BME280;50130;52.150;5.236;2023-03-07T03:03:55;99502.0;;;5.6;100.0
48892;BME280;50130;52.150;5.236;2023-03-07T03:05:31;99505.0;;;5.63;100.0
48892;BME280;50130;52.150;5.236;2023-03-07T03:08:43;99506.0;;;5.76;99.87
48892;BME280;50130;52.150;5.236;2023-03-07T03:10:20;99505.0;;;5.72;99.29
48892;BME280;50130;52.150;5.236;2023-03-07T03:11:56;99503.0;;;5.63;99.91
48892;BME280;50130;52.150;5.236;2023-03-07T03:15:10;99500.0;;;5.59;100.0
48892;BME280;50130;52.150;5.236;2023-03-07T03:16:46;99501.0;;;5.59;100.0
48892;BME280;50130;52.150;5.236;2023-03-07T03:18:22;99502.0;;;5.58;100.0
48892;BME280;50130;52.150;5.236;2023-03-07T03:21:36;99496.0;;;5.53;100.0
48892;BME280;50130;52.150;5.236;2023-03-07T03:23:12;99491.0;;;5.58;100.0
48892;BME280;50130;52.150;5.236;2023-03-07T03:24:48;99491.0;;;5.56;100.0
48892;BME280;50130;52.150;5.236;2023-03-07T03:26:24;99492.0;;;5.53;100.0
48892;BME280;50130;52.150;5.236;2023-03-07T03:29:36;99497.0;;;5.62;100.0
48892;BME280;50130;52.150;5.236;2023-03-07T03:31:13;99489.0;;;5.56;100.0
48892;BME280;50130;52.150;5.236;2023-03-07T03:32:50;99494.0;;;5.57;100.0
48892;BME280;50130;52.150;5.236;2023-03-07T03:36:06;99492.0;;;5.62;100.0
48892;BME280;50130;52.150;5.236;2023-03-07T03:37:43;99486.0;;;5.62;100.0
48892;BME280;50130;52.150;5.236;2023-03-07T03:39:19;99488.0;;;5.59;100.0
48892;BME280;50130;52.150;5.236;2023-03-07T03:42:31;99486.0;;;5.64;100.0
48892;BME280;50130;52.150;5.236;2023-03-07T03:44:08;99482.0;;;5.62;100.0
48892;BME280;50130;52.150;5.236;2023-03-07T03:45:53;99485.0;;;5.63;100.0
48892;BME280;50130;52.150;5.236;2023-03-07T03:47:29;99481.0;;;5.55;100.0
48892;BME280;50130;52.150;5.236;2023-03-07T03:50:41;99483.0;;;5.64;100.0
48892;BME280;50130;52.150;5.236;2023-03-07T03:52:17;99480.0;;;5.71;99.92
48892;BME280;50130;52.150;5.236;2023-03-07T03:53:54;99477.0;;;5.71;99.97
48892;BME280;50130;52.150;5.236;2023-03-07T03:57:07;99477.0;;;5.74;99.47
48892;BME280;50130;52.150;5.236;2023-03-07T03:58:46;99481.0;;;5.75;99.65
48892;BME280;50130;52.150;5.236;2023-03-07T04:00:23;99480.0;;;5.57;100.0
48892;BME280;50130;52.150;5.236;2023-03-07T04:01:59;99483.0;;;5.58;100.0
48892;BME280;50130;52.150;5.236;2023-03-07T04:05:15;99482.0;;;5.62;100.0
48892;BME280;50130;52.150;5.236;2023-03-07T04:06:51;99484.0;;;5.61;100.0
48892;BME280;50130;52.150;5.236;2023-03-07T04:08:27;99484.0;;;5.63;100.0
48892;BME280;50130;52.150;5.236;2023-03-07T04:11:40;99478.0;;;5.7;100.0
48892;BME280;50130;52.150;5.236;2023-03-07T04:13:16;99478.0;;;5.62;100.0
48892;BME280;50130;52.150;5.236;2023-03-07T04:14:52;99473.0;;;5.75;99.88
48892;BME280;50130;52.150;5.236;2023-03-07T04:18:05;99471.0;;;5.72;100.0
48892;BME280;50130;52.150;5.236;2023-03-07T04:19:41;99471.0;;;5.68;99.99
48892;BME280;50130;52.150;5.236;2023-03-07T04:21:17;99471.0;;;5.7;100.0
48892;BME280;50130;52.150;5.236;2023-03-07T04:22:54;99471.0;;;5.65;100.0
48892;BME280;50130;52.150;5.236;2023-03-07T04:26:08;99469.0;;;5.55;100.0
48892;BME280;50130;52.150;5.236;2023-03-07T04:27:44;99458.0;;;5.66;100.0
48892;BME280;50130;52.150;5.236;2023-03-07T04:29:21;99462.0;;;5.73;99.92
48892;BME280;50130;52.150;5.236;2023-03-07T04:32:33;99460.0;;;5.75;100.0
48892;BME280;50130;52.150;5.236;2023-03-07T04:34:09;99455.0;;;5.74;99.85
48892;BME280;50130;52.150;5.236;2023-03-07T04:35:45;99458.0;;;5.83;99.49
48892;BME280;50130;52.150;5.236;2023-03-07T04:38:57;99458.0;;;5.94;98.32
48892;BME280;50130;52.150;5.236;2023-03-07T04:40:34;99460.0;;;5.86;98.07
48892;BME280;50130;52.150;5.236;2023-03-07T04:42:10;99451.0;;;5.92;97.49
48892;BME280;50130;52.150;5.236;2023-03-07T04:43:46;99457.0;;;5.99;97.44
48892;BME280;50130;52.150;5.236;2023-03-07T04:46:58;99455.0;;;5.89;97.89
48892;BME280;50130;52.150;5.236;2023-03-07T04:48:34;99457.0;;;5.79;98.74
48892;BME280;50130;52.150;5.236;2023-03-07T04:50:10;99456.0;;;5.78;97.78
48892;BME280;50130;52.150;5.236;2023-03-07T04:53:23;99459.0;;;6.03;96.88
48892;BME280;50130;52.150;5.236;2023-03-07T04:54:59;99459.0;;;5.87;96.88
48892;BME280;50130;52.150;5.236;2023-03-07T04:56:35;99459.0;;;5.84;96.87
48892;BME280;50130;52.150;5.236;2023-03-07T04:59:48;99459.0;;;5.75;96.7
48892;BME280;50130;52.150;5.236;2023-03-07T05:01:24;99455.0;;;5.7;95.74
48892;BME280;50130;52.150;5.236;2023-03-07T05:03:00;99462.0;;;5.53;95.93
48892;BME280;50130;52.150;5.236;2023-03-07T05:06:14;99457.0;;;5.38;95.78
48892;BME280;50130;52.150;5.236;2023-03-07T05:07:51;99457.0;;;5.34;95.01
48892;BME280;50130;52.150;5.236;2023-03-07T05:09:28;99450.0;;;5.19;94.56
48892;BME280;50130;52.150;5.236;2023-03-07T05:11:05;99453.0;;;5.26;94.47
48892;BME280;50130;52.150;5.236;2023-03-07T05:14:18;99452.0;;;5.08;95.24
48892;BME280;50130;52.150;5.236;2023-03-07T05:15:55;99451.0;;;5.25;95.15
48892;BME280;50130;52.150;5.236;2023-03-07T05:17:32;99458.0;;;5.26;95.05
48892;BME280;50130;52.150;5.236;2023-03-07T05:20:45;99462.0;;;5.24;95.18
48892;BME280;50130;52.150;5.236;2023-03-07T05:22:21;99455.0;;;5.22;94.99
48892;BME280;50130;52.150;5.236;2023-03-07T05:23:57;99459.0;;;5.22;94.2
48892;BME280;50130;52.150;5.236;2023-03-07T05:25:33;99452.0;;;5.21;94.73
48892;BME280;50130;52.150;5.236;2023-03-07T05:28:46;99455.0;;;5.23;94.21
48892;BME280;50130;52.150;5.236;2023-03-07T05:30:22;99455.0;;;5.2;94.94
48892;BME280;50130;52.150;5.236;2023-03-07T05:31:58;99456.0;;;5.24;95.57
48892;BME280;50130;52.150;5.236;2023-03-07T05:35:11;99449.0;;;5.19;94.65
48892;BME280;50130;52.150;5.236;2023-03-07T05:36:46;99453.0;;;5.27;93.67
48892;BME280;50130;52.150;5.236;2023-03-07T05:38:23;99455.0;;;5.11;92.77
48892;BME280;50130;52.150;5.236;2023-03-07T05:41:35;99464.0;;;5.12;93.03
48892;BME280;50130;52.150;5.236;2023-03-07T05:43:11;99462.0;;;5.18;91.35
48892;BME280;50130;52.150;5.236;2023-03-07T05:44:47;99473.0;;;5.17;91.94
48892;BME280;50130;52.150;5.236;2023-03-07T05:48:00;99466.0;;;4.91;90.48
48892;BME280;50130;52.150;5.236;2023-03-07T05:49:36;99471.0;;;4.87;90.6
48892;BME280;50130;52.150;5.236;2023-03-07T05:51:12;99469.0;;;4.82;91.55
48892;BME280;50130;52.150;5.236;2023-03-07T05:52:48;99476.0;;;4.78;91.14
48892;BME280;50130;52.150;5.236;2023-03-07T05:56:01;99476.0;;;4.66;92.45
48892;BME280;50130;52.150;5.236;2023-03-07T05:57:37;99473.0;;;4.58;92.82
48892;BME280;50130;52.150;5.236;2023-03-07T05:59:13;99477.0;;;4.57;92.9
48892;BME280;50130;52.150;5.236;2023-03-07T06:02:26;99475.0;;;4.58;93.41
48892;BME280;50130;52.150;5.236;2023-03-07T06:04:02;99474.0;;;4.47;94.08
48892;BME280;50130;52.150;5.236;2023-03-07T06:05:38;99480.0;;;4.49;94.61
48892;BME280;50130;52.150;5.236;2023-03-07T06:08:50;99477.0;;;4.37;94.8
48892;BME280;50130;52.150;5.236;2023-03-07T06:10:26;99480.0;;;4.36;95.36
48892;BME280;50130;52.150;5.236;2023-03-07T06:12:03;99486.0;;;4.18;96.3
48892;BME280;50130;52.150;5.236;2023-03-07T06:15:16;99486.0;;;4.29;95.4
48892;BME280;50130;52.150;5.236;2023-03-07T06:16:52;99484.0;;;4.34;95.49
48892;BME280;50130;52.150;5.236;2023-03-07T06:18:28;99485.0;;;4.46;95.26
48892;BME280;50130;52.150;5.236;2023-03-07T06:20:05;99485.0;;;4.41;95.46
48892;BME280;50130;52.150;5.236;2023-03-07T06:23:18;99482.0;;;4.26;95.44
48892;BME280;50130;52.150;5.236;2023-03-07T06:24:54;99484.0;;;4.38;95.14
48892;BME280;50130;52.150;5.236;2023-03-07T06:26:30;99484.0;;;4.28;95.21
48892;BME280;50130;52.150;5.236;2023-03-07T06:29:42;99486.0;;;4.16;94.63
48892;BME280;50130;52.150;5.236;2023-03-07T06:31:18;99485.0;;;4.13;94.27
48892;BME280;50130;52.150;5.236;2023-03-07T06:32:55;99482.0;;;4.2;94.08
48892;BME280;50130;52.150;5.236;2023-03-07T06:36:10;99483.0;;;4.07;94.57
48892;BME280;50130;52.150;5.236;2023-03-07T06:37:49;99482.0;;;4.07;95.08
48892;BME280;50130;52.150;5.236;2023-03-07T06:39:25;99484.0;;;4.03;95.04
48892;BME280;50130;52.150;5.236;2023-03-07T06:41:01;99487.0;;;4.03;95.62
48892;BME280;50130;52.150;5.236;2023-03-07T06:44:15;99491.0;;;4.2;95.56
48892;BME280;50130;52.150;5.236;2023-03-07T06:45:52;99490.0;;;4.12;95.65
48892;BME280;50130;52.150;5.236;2023-03-07T06:47:28;99496.0;;;4.14;96.28
48892;BME280;50130;52.150;5.236;2023-03-07T06:50:40;99489.0;;;4.13;95.94
48892;BME280;50130;52.150;5.236;2023-03-07T06:52:16;99491.0;;;4.04;96.28
48892;BME280;50130;52.150;5.236;2023-03-07T06:53:52;99497.0;;;4.0;96.57
48892;BME280;50130;52.150;5.236;2023-03-07T06:57:05;99502.0;;;3.96;96.43
48892;BME280;50130;52.150;5.236;2023-03-07T06:58:41;99501.0;;;3.78;96.87
48892;BME280;50130;52.150;5.236;2023-03-07T07:00:18;99498.0;;;3.85;96.74
48892;BME280;50130;52.150;5.236;2023-03-07T07:01:54;99499.0;;;3.88;96.16
48892;BME280;50130;52.150;5.236;2023-03-07T07:05:07;99499.0;;;3.78;96.81
48892;BME280;50130;52.150;5.236;2023-03-07T07:06:43;99500.0;;;3.7;97.06
48892;BME280;50130;52.150;5.236;2023-03-07T07:08:20;99500.0;;;3.81;96.74
48892;BME280;50130;52.150;5.236;2023-03-07T07:11:32;99505.0;;;3.86;96.58
48892;BME280;50130;52.150;5.236;2023-03-07T07:13:08;99496.0;;;3.85;96.13
48892;BME280;50130;52.150;5.236;2023-03-07T07:14:46;99496.0;;;3.8;96.4
48892;BME280;50130;52.150;5.236;2023-03-07T07:17:58;99496.0;;;3.75;96.62
48892;BME280;50130;52.150;5.236;2023-03-07T07:19:35;99495.0;;;3.66;97.03
48892;BME280;50130;52.150;5.236;2023-03-07T07:21:11;99494.0;;;3.7;96.92
48892;BME280;50130;52.150;5.236;2023-03-07T07:22:47;99489.0;;;3.68;95.98
48892;BME280;50130;52.150;5.236;2023-03-07T07:25:59;99491.0;;;3.78;95.34
48892;BME280;50130;52.150;5.236;2023-03-07T07:27:36;99493.0;;;3.73;96.09
48892;BME280;50130;52.150;5.236;2023-03-07T07:29:12;99491.0;;;3.54;96.17
48892;BME280;50130;52.150;5.236;2023-03-07T07:32:25;99490.0;;;3.6;96.1
48892;BME280;50130;52.150;5.236;2023-03-07T07:34:01;99484.0;;;3.64;97.04
48892;BME280;50130;52.150;5.236;2023-03-07T07:35:37;99483.0;;;3.65;97.14
48892;BME280;50130;52.150;5.236;2023-03-07T07:38:49;99482.0;;;3.65;96.87
48892;BME280;50130;52.150;5.236;2023-03-07T07:40:25;99481.0;;;3.66;97.37
48892;BME280;50130;52.150;5.236;2023-03-07T07:42:02;99484.0;;;3.59;97.71
48892;BME280;50130;52.150;5.236;2023-03-07T07:43:38;99488.0;;;3.73;96.86
48892;BME280;50130;52.150;5.236;2023-03-07T07:46:51;99489.0;;;3.59;97.34
48892;BME280;50130;52.150;5.236;2023-03-07T07:48:27;99493.0;;;3.55;97.73
48892;BME280;50130;52.150;5.236;2023-03-07T07:50:04;99491.0;;;3.62;97.31
48892;BME280;50130;52.150;5.236;2023-03-07T07:53:17;99491.0;;;3.54;97.96
48892;BME280;50130;52.150;5.236;2023-03-07T07:54:53;99490.0;;;3.47;98.16
48892;BME280;50130;52.150;5.236;2023-03-07T07:56:29;99500.0;;;3.53;98.14
48892;BME280;50130;52.150;5.236;2023-03-07T07:59:41;99502.0;;;3.64;98.33
48892;BME280;50130;52.150;5.236;2023-03-07T08:01:19;99503.0;;;3.61;98.3
48892;BME280;50130;52.150;5.236;2023-03-07T08:02:57;99505.0;;;3.88;97.34
48892;BME280;50130;52.150;5.236;2023-03-07T08:04:34;99501.0;;;3.71;97.55
48892;BME280;50130;52.150;5.236;2023-03-07T08:07:48;99501.0;;;3.77;98.08
48892;BME280;50130;52.150;5.236;2023-03-07T08:09:24;99505.0;;;3.79;98.21
48892;BME280;50130;52.150;5.236;2023-03-07T08:11:00;99505.0;;;3.81;98.41
48892;BME280;50130;52.150;5.236;2023-03-07T08:14:13;99505.0;;;3.94;98.38
48892;BME280;50130;52.150;5.236;2023-03-07T08:15:49;99508.0;;;3.87;98.25
48892;BME280;50130;52.150;5.236;2023-03-07T08:17:25;99506.0;;;4.07;97.69
48892;BME280;50130;52.150;5.236;2023-03-07T08:20:39;99515.0;;;3.97;97.98
48892;BME280;50130;52.150;5.236;2023-03-07T08:22:15;99516.0;;;3.96;98.39
48892;BME280;50130;52.150;5.236;2023-03-07T08:23:52;99518.0;;;4.05;98.47
48892;BME280;50130;52.150;5.236;2023-03-07T08:25:29;99519.0;;;4.03;98.35
48892;BME280;50130;52.150;5.236;2023-03-07T08:28:41;99516.0;;;4.05;98.31
48892;BME280;50130;52.150;5.236;2023-03-07T08:30:17;99517.0;;;4.1;97.85
48892;BME280;50130;52.150;5.236;2023-03-07T08:31:54;99518.0;;;4.18;97.45
48892;BME280;50130;52.150;5.236;2023-03-07T08:35:07;99520.0;;;4.26;97.54
48892;BME280;50130;52.150;5.236;2023-03-07T08:36:44;99521.0;;;4.25;97.73
48892;BME280;50130;52.150;5.236;2023-03-07T08:38:19;99515.0;;;4.13;97.2
48892;BME280;50130;52.150;5.236;2023-03-07T08:41:32;99517.0;;;4.26;97.69
48892;BME280;50130;52.150;5.236;2023-03-07T08:43:08;99518.0;;;4.32;98.02
48892;BME280;50130;52.150;5.236;2023-03-07T08:44:44;99511.0;;;4.16;98.62
48892;BME280;50130;52.150;5.236;2023-03-07T08:47:57;99507.0;;;4.01;98.94
48892;BME280;50130;52.150;5.236;2023-03-07T08:49:33;99512.0;;;4.1;99.03
48892;BME280;50130;52.150;5.236;2023-03-07T08:51:10;99515.0;;;4.16;99.22
48892;BME280;50130;52.150;5.236;2023-03-07T08:52:48;99516.0;;;4.2;99.58
48892;BME280;50130;52.150;5.236;2023-03-07T08:56:05;99512.0;;;4.24;99.01
48892;BME280;50130;52.150;5.236;2023-03-07T08:57:43;99517.0;;;4.21;99.14
48892;BME280;50130;52.150;5.236;2023-03-07T08:59:19;99517.0;;;4.09;100.0
48892;BME280;50130;52.150;5.236;2023-03-07T09:02:33;99515.0;;;4.24;99.16
48892;BME280;50130;52.150;5.236;2023-03-07T09:04:09;99518.0;;;4.25;99.29
48892;BME280;50130;52.150;5.236;2023-03-07T09:05:45;99516.0;;;4.3;98.97
48892;BME280;50130;52.150;5.236;2023-03-07T09:07:22;99521.0;;;4.26;99.1
48892;BME280;50130;52.150;5.236;2023-03-07T09:10:35;99517.0;;;4.25;99.18
48892;BME280;50130;52.150;5.236;2023-03-07T09:12:11;99517.0;;;4.41;99.73
48892;BME280;50130;52.150;5.236;2023-03-07T09:13:48;99519.0;;;4.39;99.38
48892;BME280;50130;52.150;5.236;2023-03-07T09:17:00;99521.0;;;4.34;100.0
48892;BME280;50130;52.150;5.236;2023-03-07T09:18:36;99514.0;;;4.45;99.58
48892;BME280;50130;52.150;5.236;2023-03-07T09:20:12;99518.0;;;4.45;99.07
48892;BME280;50130;52.150;5.236;2023-03-07T09:23:25;99513.0;;;4.45;99.35
48892;BME280;50130;52.150;5.236;2023-03-07T09:25:02;99513.0;;;4.58;99.35
48892;BME280;50130;52.150;5.236;2023-03-07T09:26:39;99515.0;;;4.59;99.26
48892;BME280;50130;52.150;5.236;2023-03-07T09:28:15;99517.0;;;4.64;99.28
48892;BME280;50130;52.150;5.236;2023-03-07T09:31:27;99514.0;;;4.51;98.65
48892;BME280;50130;52.150;5.236;2023-03-07T09:33:03;99517.0;;;4.51;99.12
48892;BME280;50130;52.150;5.236;2023-03-07T09:34:39;99519.0;;;4.62;99.61
48892;BME280;50130;52.150;5.236;2023-03-07T09:37:53;99523.0;;;4.78;99.32
48892;BME280;50130;52.150;5.236;2023-03-07T09:39:29;99515.0;;;4.78;99.53
48892;BME280;50130;52.150;5.236;2023-03-07T09:41:20;99521.0;;;4.74;99.06
48892;BME280;50130;52.150;5.236;2023-03-07T09:43:17;99521.0;;;4.79;99.98
48892;BME280;50130;52.150;5.236;2023-03-07T09:47:29;99511.0;;;4.99;99.55
48892;BME280;50130;52.150;5.236;2023-03-07T09:49:17;99513.0;;;5.2;99.68
48892;BME280;50130;52.150;5.236;2023-03-07T09:52:38;99516.0;;;5.09;98.99
48892;BME280;50130;52.150;5.236;2023-03-07T09:54:17;99517.0;;;5.14;98.6
48892;BME280;50130;52.150;5.236;2023-03-07T09:55:57;99515.0;;;5.07;98.71
48892;BME280;50130;52.150;5.236;2023-03-07T09:57:39;99517.0;;;5.27;97.78
48892;BME280;50130;52.150;5.236;2023-03-07T10:01:10;99514.0;;;5.13;98.16
48892;BME280;50130;52.150;5.236;2023-03-07T10:02:52;99512.0;;;5.09;97.97
48892;BME280;50130;52.150;5.236;2023-03-07T10:04:38;99511.0;;;5.01;98.07
48892;BME280;50130;52.150;5.236;2023-03-07T10:06:25;99519.0;;;5.12;97.35
48892;BME280;50130;52.150;5.236;2023-03-07T10:08:03;99519.0;;;5.03;98.16
48892;BME280;50130;52.150;5.236;2023-03-07T10:11:26;99524.0;;;5.05;98.08
48892;BME280;50130;52.150;5.236;2023-03-07T10:13:22;99521.0;;;5.0;97.95
48892;BME280;50130;52.150;5.236;2023-03-07T10:15:10;99525.0;;;4.96;98.39
48892;BME280;50130;52.150;5.236;2023-03-07T10:16:58;99521.0;;;4.99;97.32
48892;BME280;50130;52.150;5.236;2023-03-07T10:18:50;99524.0;;;5.14;97.55
48892;BME280;50130;52.150;5.236;2023-03-07T10:20:38;99530.0;;;5.12;97.72
48892;BME280;50130;52.150;5.236;2023-03-07T10:24:21;99528.0;;;5.03;97.55
48892;BME280;50130;52.150;5.236;2023-03-07T10:26:09;99531.0;;;5.18;98.28
48892;BME280;50130;52.150;5.236;2023-03-07T10:27:46;99534.0;;;5.38;97.7
48892;BME280;50130;52.150;5.236;2023-03-07T10:29:33;99533.0;;;5.39;97.79
48892;BME280;50130;52.150;5.236;2023-03-07T10:31:15;99530.0;;;5.23;95.49
48892;BME280;50130;52.150;5.236;2023-03-07T10:34:31;99533.0;;;5.35;94.51
48892;BME280;50130;52.150;5.236;2023-03-07T10:36:12;99528.0;;;5.48;95.87
48892;BME280;50130;52.150;5.236;2023-03-07T10:37:54;99535.0;;;5.47;96.49
48892;BME280;50130;52.150;5.236;2023-03-07T10:39:36;99534.0;;;5.59;96.61
48892;BME280;50130;52.150;5.236;2023-03-07T10:42:57;99527.0;;;5.68;96.37
48892;BME280;50130;52.150;5.236;2023-03-07T10:44:35;99530.0;;;5.59;95.64
48892;BME280;50130;52.150;5.236;2023-03-07T10:46:13;99532.0;;;5.69;96.09
48892;BME280;50130;52.150;5.236;2023-03-07T10:47:52;99528.0;;;5.7;96.14
48892;BME280;50130;52.150;5.236;2023-03-07T10:51:15;99532.0;;;5.66;97.45
48892;BME280;50130;52.150;5.236;2023-03-07T10:53:13;99534.0;;;5.6;96.57
48892;BME280;50130;52.150;5.236;2023-03-07T10:55:28;99532.0;;;5.58;95.54
48892;BME280;50130;52.150;5.236;2023-03-07T10:57:10;99535.0;;;5.64;95.39
48892;BME280;50130;52.150;5.236;2023-03-07T10:59:03;99543.0;;;5.6;94.26
48892;BME280;50130;52.150;5.236;2023-03-07T11:00:41;99543.0;;;5.46;93.69
48892;BME280;50130;52.150;5.236;2023-03-07T11:04:19;99548.0;;;5.31;95.44
48892;BME280;50130;52.150;5.236;2023-03-07T11:05:57;99546.0;;;5.36;95.03
48892;BME280;50130;52.150;5.236;2023-03-07T11:07:35;99548.0;;;5.28;94.17
48892;BME280;50130;52.150;5.236;2023-03-07T11:09:17;99550.0;;;5.38;94.08
48892;BME280;50130;52.150;5.236;2023-03-07T11:11:03;99551.0;;;5.26;95.11
48892;BME280;50130;52.150;5.236;2023-03-07T11:14:21;99552.0;;;5.28;93.58
48892;BME280;50130;52.150;5.236;2023-03-07T11:16:18;99557.0;;;4.99;93.93
48892;BME280;50130;52.150;5.236;2023-03-07T11:17:55;99561.0;;;5.08;94.13
48892;BME280;50130;52.150;5.236;2023-03-07T11:19:34;99561.0;;;5.13;95.3
48892;BME280;50130;52.150;5.236;2023-03-07T11:21:31;99559.0;;;5.14;96.99
48892;BME280;50130;52.150;5.236;2023-03-07T11:24:59;99553.0;;;5.03;95.69
48892;BME280;50130;52.150;5.236;2023-03-07T11:26:38;99564.0;;;4.84;95.66
48892;BME280;50130;52.150;5.236;2023-03-07T11:28:25;99557.0;;;4.84;95.94
48892;BME280;50130;52.150;5.236;2023-03-07T11:30:25;99560.0;;;5.0;94.6